createdAt,value
2019-04-21T00:01:30.662Z,11.67
2019-04-21T00:06:56.893Z,14.80
2019-04-21T00:12:12.001Z,13.27
2019-04-21T00:17:00.636Z,14.80
2019-04-21T00:22:14.189Z,11.33
2019-04-21T00:27:28.353Z,10.83
2019-04-21T00:32:33.391Z,10.53
2019-04-21T00:37:49.270Z,10.27
2019-04-21T00:42:58.851Z,11.53
2019-04-21T00:48:03.882Z,11.00
2019-04-21T00:53:37.895Z,10.07
2019-04-21T00:58:53.230Z,10.17
2019-04-21T01:03:46.229Z,10.40
2019-04-21T01:08:46.333Z,10.07
2019-04-21T01:14:05.225Z,10.00
2019-04-21T01:19:05.038Z,10.10
2019-04-21T01:23:55.675Z,10.47
2019-04-21T01:29:22.812Z,11.10
2019-04-21T01:34:33.102Z,10.07
2019-04-21T01:39:41.149Z,9.77
2019-04-21T01:44:48.504Z,10.37
2019-04-21T01:49:43.198Z,10.13
2019-04-21T01:55:32.340Z,9.87
2019-04-21T02:00:39.389Z,10.23
2019-04-21T02:05:59.654Z,8.93
2019-04-21T02:11:07.618Z,8.57
2019-04-21T02:16:12.472Z,9.40
2019-04-21T02:21:04.273Z,9.10
2019-04-21T02:26:27.189Z,9.43
2019-04-21T02:31:50.425Z,9.90
2019-04-21T02:37:05.513Z,9.17
2019-04-21T02:41:55.779Z,9.70
2019-04-21T02:46:54.517Z,9.23
2019-04-21T02:52:20.148Z,10.23
2019-04-21T02:57:18.446Z,9.97
2019-04-21T03:03:05.721Z,10.47
2019-04-21T03:08:03.795Z,9.63
2019-04-21T03:13:26.700Z,9.87
2019-04-21T03:18:24.250Z,10.80
2019-04-21T03:23:38.173Z,10.30
2019-04-21T03:28:39.683Z,9.67
2019-04-21T03:38:45.387Z,10.73
2019-04-21T03:43:58.845Z,9.77
2019-04-21T03:49:16.413Z,9.47
2019-04-21T03:54:22.345Z,8.57
2019-04-21T03:59:17.791Z,10.57
2019-04-21T04:04:52.736Z,9.40
2019-04-21T04:10:08.076Z,9.47
2019-04-21T04:15:15.071Z,10.23
2019-04-21T04:20:22.443Z,9.40
2019-04-21T04:25:25.225Z,10.53
2019-04-21T04:30:31.309Z,9.70
2019-04-21T04:35:52.903Z,8.67
2019-04-21T04:40:55.977Z,9.17
2019-04-21T04:45:59.980Z,8.50
2019-04-21T05:01:45.015Z,9.20
2019-04-21T05:06:42.709Z,8.33
2019-04-21T05:21:43.936Z,7.87
2019-04-21T05:26:51.960Z,8.83
2019-04-21T05:32:17.206Z,8.20
2019-04-21T05:37:43.224Z,8.20
2019-04-21T05:42:51.282Z,7.73
2019-04-21T05:48:39.807Z,7.73
2019-04-21T05:53:35.954Z,7.50
2019-04-21T05:58:46.270Z,7.93
2019-04-21T06:03:54.839Z,7.57
2019-04-21T06:08:52.588Z,8.00
2019-04-21T06:14:25.387Z,7.90
2019-04-21T06:19:15.058Z,6.70
2019-04-21T06:24:16.764Z,7.33
2019-04-21T06:29:26.531Z,7.33
2019-04-21T06:34:41.423Z,7.00
2019-04-21T06:39:52.593Z,6.50
2019-04-21T06:44:56.095Z,6.93
2019-04-21T06:49:56.804Z,6.90
2019-04-21T06:55:12.582Z,5.40
2019-04-21T07:00:07.463Z,6.70
2019-04-21T07:05:13.579Z,5.67
2019-04-21T07:15:30.393Z,3.87
2019-04-21T07:20:37.947Z,4.10
2019-04-21T07:25:48.322Z,4.07
2019-04-21T07:30:59.378Z,3.90
2019-04-21T07:36:06.326Z,4.40
2019-04-21T07:41:02.567Z,4.10
2019-04-21T07:46:10.134Z,3.00
2019-04-21T07:51:43.986Z,3.07
2019-04-21T07:56:32.986Z,3.70
2019-04-21T08:01:55.062Z,3.37
2019-04-21T08:07:02.786Z,3.40
2019-04-21T08:12:04.331Z,3.37
2019-04-21T08:17:16.217Z,3.87
2019-04-21T08:22:30.730Z,3.30
2019-04-21T08:27:35.171Z,3.20
2019-04-21T08:33:00.572Z,3.33
2019-04-21T08:37:55.202Z,3.00
2019-04-21T08:43:04.104Z,3.07
2019-04-21T08:48:18.280Z,3.00
2019-04-21T08:53:20.843Z,2.83
2019-04-21T08:58:54.152Z,3.40
2019-04-21T09:03:56.777Z,3.07
2019-04-21T09:09:08.182Z,3.40
2019-04-21T09:14:10.384Z,3.17
2019-04-21T09:19:20.226Z,3.83
2019-04-21T09:24:22.232Z,2.97
2019-04-21T09:29:22.125Z,3.17
2019-04-21T09:34:24.875Z,3.67
2019-04-21T09:39:29.678Z,3.67
2019-04-21T09:44:38.673Z,3.73
2019-04-21T09:49:43.201Z,3.80
2019-04-21T09:54:58.670Z,4.13
2019-04-21T10:00:05.033Z,4.20
2019-04-21T10:05:05.348Z,3.77
2019-04-21T10:10:12.803Z,4.10
2019-04-21T10:15:19.628Z,4.13
2019-04-21T10:20:26.764Z,3.93
2019-04-21T10:25:32.554Z,4.00
2019-04-21T10:30:38.541Z,4.03
2019-04-21T10:35:45.025Z,4.43
2019-04-21T10:40:51.588Z,3.90
2019-04-21T10:45:57.347Z,3.73
2019-04-21T10:51:03.220Z,3.80
2019-04-21T10:56:18.069Z,4.03
2019-04-21T11:01:21.150Z,3.87
2019-04-21T11:06:26.627Z,3.70
2019-04-21T11:11:32.254Z,3.40
2019-04-21T11:16:37.748Z,3.37
2019-04-21T11:21:43.143Z,3.60
2019-04-21T11:26:49.726Z,3.30
2019-04-21T11:31:56.889Z,3.40
2019-04-21T11:37:03.928Z,2.97
2019-04-21T11:42:17.697Z,3.07
2019-04-21T11:47:28.112Z,3.00
2019-04-21T11:52:34.732Z,3.50
2019-04-21T11:57:44.923Z,2.97
2019-04-21T12:02:48.396Z,3.27
2019-04-21T12:07:53.719Z,3.13
2019-04-21T12:12:59.263Z,2.80
2019-04-21T12:18:06.024Z,3.47
2019-04-21T12:23:12.199Z,2.33
2019-04-21T12:28:19.589Z,2.97
2019-04-21T12:33:38.046Z,3.13
2019-04-21T12:38:52.176Z,2.97
2019-04-21T12:43:52.755Z,3.20
2019-04-21T12:48:59.888Z,2.93
2019-04-21T12:54:06.007Z,3.20
2019-04-21T12:59:13.434Z,3.30
2019-04-21T13:04:20.278Z,3.07
2019-04-21T13:09:32.120Z,3.53
2019-04-21T13:14:39.928Z,3.20
2019-04-21T13:19:45.774Z,3.10
2019-04-21T13:24:51.803Z,2.80
2019-04-21T13:29:57.768Z,2.97
2019-04-21T13:35:05.253Z,3.13
2019-04-21T13:40:50.095Z,3.20
2019-04-21T13:45:42.058Z,2.67
2019-04-21T13:50:49.068Z,3.10
2019-04-21T13:55:56.319Z,3.10
2019-04-21T14:01:03.401Z,2.70
2019-04-21T14:06:09.371Z,2.30
2019-04-21T14:11:25.124Z,2.50
2019-04-21T14:16:32.005Z,2.47
2019-04-21T14:21:41.191Z,2.50
2019-04-21T14:26:47.876Z,3.13
2019-04-21T14:31:53.538Z,2.50
2019-04-21T14:36:59.612Z,3.43
2019-04-21T14:42:06.365Z,2.70
2019-04-21T14:47:37.977Z,2.63
2019-04-21T14:52:44.911Z,2.70
2019-04-21T14:57:51.518Z,2.60
2019-04-21T15:02:57.912Z,2.70
2019-04-21T15:08:03.466Z,2.53
2019-04-21T15:13:10.057Z,2.83
2019-04-21T15:18:16.777Z,2.60
2019-04-21T15:23:26.371Z,2.37
2019-04-21T15:28:33.919Z,2.90
2019-04-21T15:33:39.205Z,2.53
2019-04-21T15:38:45.811Z,2.70
2019-04-21T15:43:51.255Z,2.53
2019-04-21T15:48:57.133Z,3.13
2019-04-21T15:54:04.797Z,2.83
2019-04-21T15:59:38.519Z,3.13
2019-04-21T16:04:46.535Z,2.73
2019-04-21T16:09:52.440Z,3.00
2019-04-21T16:14:58.788Z,2.70
2019-04-21T16:20:12.223Z,2.90
2019-04-21T16:25:21.038Z,3.43
2019-04-21T16:30:29.030Z,2.73
2019-04-21T16:35:36.147Z,4.60
2019-04-21T16:40:52.594Z,4.30
2019-04-21T16:45:52.875Z,3.00
2019-04-21T16:50:59.517Z,3.20
2019-04-21T16:56:29.030Z,3.30
2019-04-21T17:01:34.550Z,3.43
2019-04-21T17:06:42.858Z,3.63
2019-04-21T17:11:57.451Z,3.53
2019-04-21T17:17:19.089Z,4.60
2019-04-21T17:22:05.869Z,3.70
2019-04-21T17:27:11.462Z,3.70
2019-04-21T17:32:18.377Z,3.23
2019-04-21T17:37:26.784Z,4.00
2019-04-21T17:42:39.763Z,4.00
2019-04-21T17:47:49.800Z,3.67
2019-04-21T17:52:59.028Z,3.50
2019-04-21T17:58:16.010Z,3.97
2019-04-21T18:03:39.010Z,4.23
2019-04-21T18:08:36.397Z,4.23
2019-04-21T18:13:26.872Z,4.60
2019-04-21T18:18:34.900Z,5.60
2019-04-21T18:24:05.709Z,5.67
2019-04-21T18:29:05.420Z,6.47
2019-04-21T18:34:32.327Z,6.93
2019-04-21T18:39:55.905Z,6.97
2019-04-21T18:50:30.323Z,9.53
2019-04-21T18:55:41.481Z,9.37
2019-04-21T19:00:44.153Z,8.57
2019-04-21T19:05:59.440Z,8.07
2019-04-21T19:11:19.641Z,7.57
2019-04-21T19:16:33.095Z,8.17
2019-04-21T19:21:31.159Z,10.73
2019-04-21T19:26:54.658Z,11.73
2019-04-21T19:31:54.740Z,13.60
2019-04-21T19:36:49.377Z,13.23
2019-04-21T19:42:00.519Z,12.87
2019-04-21T19:47:19.816Z,12.43
2019-04-21T19:52:20.383Z,10.47
2019-04-21T19:57:18.795Z,12.07
2019-04-21T20:02:24.786Z,11.83
2019-04-21T20:07:44.448Z,11.57
2019-04-21T20:12:58.385Z,10.37
2019-04-21T20:18:02.043Z,9.17
2019-04-21T20:22:56.055Z,11.20
2019-04-21T20:28:09.610Z,11.23
2019-04-21T20:38:31.305Z,11.17
2019-04-21T20:43:47.173Z,11.07
2019-04-21T20:48:52.845Z,10.93
2019-04-21T20:53:56.583Z,11.87
2019-04-21T20:59:07.738Z,12.33
2019-04-21T21:04:12.104Z,11.37
2019-04-21T21:09:17.964Z,11.37
2019-04-21T21:14:29.288Z,11.67
2019-04-21T21:19:42.447Z,11.90
2019-04-21T21:24:46.408Z,12.57
2019-04-21T21:29:50.230Z,11.87
2019-04-21T21:35:06.166Z,10.30
2019-04-21T21:40:09.470Z,10.40
2019-04-21T21:45:04.858Z,13.10
2019-04-21T21:50:17.183Z,12.17
2019-04-21T21:55:15.838Z,11.83
2019-04-21T22:00:26.331Z,12.03
2019-04-21T22:05:45.571Z,11.60
2019-04-21T22:10:41.227Z,14.40
2019-04-21T22:15:58.070Z,11.27
2019-04-21T22:21:10.274Z,10.83
2019-04-21T22:26:07.324Z,10.47
2019-04-21T22:31:22.428Z,11.27
2019-04-21T22:36:36.615Z,11.83
2019-04-21T22:41:40.518Z,11.33
2019-04-21T22:46:52.087Z,11.03
2019-04-21T22:51:51.848Z,11.97
2019-04-21T22:57:05.239Z,10.10
2019-04-21T23:02:13.629Z,9.93
2019-04-21T23:07:17.277Z,9.73
2019-04-21T23:12:28.158Z,11.47
2019-04-21T23:17:53.157Z,11.03
2019-04-21T23:23:05.162Z,12.13
2019-04-21T23:28:09.248Z,11.20
2019-04-21T23:33:06.562Z,11.17
2019-04-21T23:38:10.653Z,11.93
2019-04-21T23:43:23.877Z,11.63
2019-04-21T23:48:39.101Z,14.77
2019-04-21T23:53:39.507Z,13.93
2019-04-21T23:58:52.049Z,11.97
